Terminal Aerodrome Forecast
Issued by NWS

Home | Current Version | Previous Version | Text Only | Print | Product List | Glossary On
Versions: 1 2 3 4 5 6 7 8 9 10 11 12 13 14 15 16 17 18 19 20 21 22 23
000
FTAK31 PAJN 010534
TAFASI
TAF
PASI 010534Z 0106/0206 31008KT P6SM VCSH BKN020 OVC050
      TEMPO 0106/0109 5SM -SHRA BR SCT008 BKN015 OVC040
     FM011200 VRB03KT P6SM BCFG FEW004 BKN020 BKN050
     FM011700 30008KT P6SM VCSH SCT025 BKN050 BKN070=

USA.gov is the U.S. government's official web portal to all federal, state and local government web resources and services.